sensor_id;sensor_type;location;lat;lon;timestamp;pressure;altitude;pressure_sealevel;temperature;humidity
79236;BME280;69062;47.460;18.812;2023-05-19T00:00:22;100841.63;;;21.68;65.00
79236;BME280;69062;47.460;18.812;2023-05-19T00:01:25;100840.63;;;21.69;65.21
79236;BME280;69062;47.460;18.812;2023-05-19T00:02:26;100844.03;;;21.71;64.99
79236;BME280;69062;47.460;18.812;2023-05-19T00:03:34;100844.03;;;21.71;64.80
79236;BME280;69062;47.460;18.812;2023-05-19T00:04:40;100837.81;;;21.70;65.06
79236;BME280;69062;47.460;18.812;2023-05-19T00:05:42;100843.19;;;21.70;65.15
79236;BME280;69062;47.460;18.812;2023-05-19T00:06:49;100844.03;;;21.71;64.50
79236;BME280;69062;47.460;18.812;2023-05-19T00:07:58;100844.03;;;21.71;64.61
79236;BME280;69062;47.460;18.812;2023-05-19T00:09:10;100838.66;;;21.71;64.70
79236;BME280;69062;47.460;18.812;2023-05-19T00:10:12;100846.00;;;21.69;64.81
79236;BME280;69062;47.460;18.812;2023-05-19T00:11:14;100838.78;;;21.69;65.41
79236;BME280;69062;47.460;18.812;2023-05-19T00:12:15;100839.91;;;21.67;65.23
79236;BME280;69062;47.460;18.812;2023-05-19T00:13:18;100835.38;;;21.67;65.08
79236;BME280;69062;47.460;18.812;2023-05-19T00:14:20;100839.78;;;21.68;65.12
79236;BME280;69062;47.460;18.812;2023-05-19T00:15:21;100840.91;;;21.66;65.15
79236;BME280;69062;47.460;18.812;2023-05-19T00:16:24;100837.09;;;21.68;64.54
79236;BME280;69062;47.460;18.812;2023-05-19T00:17:26;100842.47;;;21.68;65.29
79236;BME280;69062;47.460;18.812;2023-05-19T00:18:27;100843.47;;;21.67;64.62
79236;BME280;69062;47.460;18.812;2023-05-19T00:19:29;100842.72;;;21.65;65.18
79236;BME280;69062;47.460;18.812;2023-05-19T00:20:32;100839.06;;;21.66;64.98
79236;BME280;69062;47.460;18.812;2023-05-19T00:21:33;100831.97;;;21.65;64.76
79236;BME280;69062;47.460;18.812;2023-05-19T00:22:35;100840.91;;;21.66;64.86
79236;BME280;69062;47.460;18.812;2023-05-19T00:23:37;100834.78;;;21.64;64.93
79236;BME280;69062;47.460;18.812;2023-05-19T00:24:38;100836.47;;;21.65;65.34
79236;BME280;69062;47.460;18.812;2023-05-19T00:25:39;100839.16;;;21.65;65.05
79236;BME280;69062;47.460;18.812;2023-05-19T00:26:41;100833.09;;;21.63;64.95
79236;BME280;69062;47.460;18.812;2023-05-19T00:27:42;100827.56;;;21.64;65.10
79236;BME280;69062;47.460;18.812;2023-05-19T00:28:44;100832.94;;;21.64;65.34
79236;BME280;69062;47.460;18.812;2023-05-19T00:29:45;100832.38;;;21.61;65.24
79236;BME280;69062;47.460;18.812;2023-05-19T00:30:47;100825.28;;;21.60;65.29
79236;BME280;69062;47.460;18.812;2023-05-19T00:31:48;100829.81;;;21.59;65.26
79236;BME280;69062;47.460;18.812;2023-05-19T00:32:50;100828.97;;;21.59;65.11
79236;BME280;69062;47.460;18.812;2023-05-19T00:33:52;100826.38;;;21.57;65.11
79236;BME280;69062;47.460;18.812;2023-05-19T00:34:53;100830.91;;;21.57;65.17
79236;BME280;69062;47.460;18.812;2023-05-19T00:35:55;100829.91;;;21.58;64.90
79236;BME280;69062;47.460;18.812;2023-05-19T00:36:56;100835.28;;;21.58;64.79
79236;BME280;69062;47.460;18.812;2023-05-19T00:37:57;100833.59;;;21.57;65.47
79236;BME280;69062;47.460;18.812;2023-05-19T00:38:59;100833.59;;;21.57;64.74
79236;BME280;69062;47.460;18.812;2023-05-19T00:40:00;100833.59;;;21.57;65.14
79236;BME280;69062;47.460;18.812;2023-05-19T00:41:03;100839.97;;;21.56;65.46
79236;BME280;69062;47.460;18.812;2023-05-19T00:42:05;100840.94;;;21.55;65.07
79236;BME280;69062;47.460;18.812;2023-05-19T00:43:07;100841.78;;;21.55;65.01
79236;BME280;69062;47.460;18.812;2023-05-19T00:44:11;100837.41;;;21.54;65.20
79236;BME280;69062;47.460;18.812;2023-05-19T00:45:12;100834.59;;;21.56;64.96
79236;BME280;69062;47.460;18.812;2023-05-19T00:46:13;100835.56;;;21.55;64.79
79236;BME280;69062;47.460;18.812;2023-05-19T00:47:15;100836.56;;;21.54;65.46
79236;BME280;69062;47.460;18.812;2023-05-19T00:48:17;100837.41;;;21.54;64.84
79236;BME280;69062;47.460;18.812;2023-05-19T00:49:18;100835.56;;;21.55;65.18
79236;BME280;69062;47.460;18.812;2023-05-19T00:50:20;100837.28;;;21.56;65.37
79236;BME280;69062;47.460;18.812;2023-05-19T00:51:22;100832.88;;;21.55;64.98
79236;BME280;69062;47.460;18.812;2023-05-19T00:52:26;100836.56;;;21.54;65.18
79236;BME280;69062;47.460;18.812;2023-05-19T00:53:30;100831.03;;;21.55;65.53
79236;BME280;69062;47.460;18.812;2023-05-19T00:54:33;100838.53;;;21.52;65.42
79236;BME280;69062;47.460;18.812;2023-05-19T00:55:36;100839.50;;;21.51;65.65
79236;BME280;69062;47.460;18.812;2023-05-19T00:56:38;100832.31;;;21.51;64.82
79236;BME280;69062;47.460;18.812;2023-05-19T00:57:42;100833.16;;;21.52;64.94
79236;BME280;69062;47.460;18.812;2023-05-19T00:58:44;100834.84;;;21.53;64.99
79236;BME280;69062;47.460;18.812;2023-05-19T00:59:48;100827.03;;;21.50;65.60
79236;BME280;69062;47.460;18.812;2023-05-19T01:00:50;100833.41;;;21.48;65.13
79236;BME280;69062;47.460;18.812;2023-05-19T01:01:51;100834.25;;;21.49;65.35
79236;BME280;69062;47.460;18.812;2023-05-19T01:02:53;100830.72;;;21.48;65.04
79236;BME280;69062;47.460;18.812;2023-05-19T01:03:56;100831.56;;;21.49;65.57
79236;BME280;69062;47.460;18.812;2023-05-19T01:04:59;100838.78;;;21.48;65.41
79236;BME280;69062;47.460;18.812;2023-05-19T01:06:01;100831.84;;;21.46;65.38
79236;BME280;69062;47.460;18.812;2023-05-19T01:07:05;100836.22;;;21.47;65.65
79236;BME280;69062;47.460;18.812;2023-05-19T01:08:07;100830.13;;;21.45;64.93
79236;BME280;69062;47.460;18.812;2023-05-19T01:09:09;100834.66;;;21.44;64.96
79236;BME280;69062;47.460;18.812;2023-05-19T01:10:10;100836.50;;;21.44;65.05
79236;BME280;69062;47.460;18.812;2023-05-19T01:11:12;100829.38;;;21.43;65.13
79236;BME280;69062;47.460;18.812;2023-05-19T01:12:14;100836.50;;;21.44;65.06
79236;BME280;69062;47.460;18.812;2023-05-19T01:13:16;100840.03;;;21.44;65.02
79236;BME280;69062;47.460;18.812;2023-05-19T01:14:19;100834.75;;;21.43;65.50
79236;BME280;69062;47.460;18.812;2023-05-19T01:15:24;100841.00;;;21.43;65.49
79236;BME280;69062;47.460;18.812;2023-05-19T01:16:39;100837.34;;;21.44;65.02
79236;BME280;69062;47.460;18.812;2023-05-19T01:17:58;100836.50;;;21.44;65.76
79236;BME280;69062;47.460;18.812;2023-05-19T01:20:38;100832.91;;;21.43;65.46
79236;BME280;69062;47.460;18.812;2023-05-19T01:21:58;100836.50;;;21.44;65.57
79236;BME280;69062;47.460;18.812;2023-05-19T01:23:33;100835.59;;;21.43;65.36
79236;BME280;69062;47.460;18.812;2023-05-19T01:29:22;100830.50;;;21.40;65.22
79236;BME280;69062;47.460;18.812;2023-05-19T01:30:42;100845.66;;;21.41;65.15
79236;BME280;69062;47.460;18.812;2023-05-19T01:31:45;100842.25;;;21.39;65.07
79236;BME280;69062;47.460;18.812;2023-05-19T01:32:49;100845.78;;;21.40;65.06
79236;BME280;69062;47.460;18.812;2023-05-19T01:33:54;100842.38;;;21.38;65.17
79236;BME280;69062;47.460;18.812;2023-05-19T01:34:57;100848.59;;;21.38;65.56
79236;BME280;69062;47.460;18.812;2023-05-19T01:36:02;100840.41;;;21.40;65.58
79236;BME280;69062;47.460;18.812;2023-05-19T01:37:06;100839.41;;;21.41;65.00
79236;BME280;69062;47.460;18.812;2023-05-19T01:38:10;100843.22;;;21.38;65.72
79236;BME280;69062;47.460;18.812;2023-05-19T01:39:12;100839.56;;;21.39;65.64
79236;BME280;69062;47.460;18.812;2023-05-19T01:40:14;100843.22;;;21.38;65.73
79236;BME280;69062;47.460;18.812;2023-05-19T01:41:17;100840.53;;;21.38;65.17
79236;BME280;69062;47.460;18.812;2023-05-19T01:42:22;100842.38;;;21.38;65.90
79236;BME280;69062;47.460;18.812;2023-05-19T01:43:25;100836.16;;;21.37;65.64
79236;BME280;69062;47.460;18.812;2023-05-19T01:44:28;100841.53;;;21.37;65.56
79236;BME280;69062;47.460;18.812;2023-05-19T01:45:32;100838.09;;;21.35;65.26
79236;BME280;69062;47.460;18.812;2023-05-19T01:46:34;100838.00;;;21.37;65.24
79236;BME280;69062;47.460;18.812;2023-05-19T01:47:41;100838.94;;;21.36;65.79
79236;BME280;69062;47.460;18.812;2023-05-19T01:48:44;100832.72;;;21.35;65.39
79236;BME280;69062;47.460;18.812;2023-05-19T01:49:45;100842.63;;;21.35;65.41
79236;BME280;69062;47.460;18.812;2023-05-19T01:50:46;100840.69;;;21.37;65.27
79236;BME280;69062;47.460;18.812;2023-05-19T01:51:48;100829.19;;;21.35;65.12
79236;BME280;69062;47.460;18.812;2023-05-19T01:52:50;100830.16;;;21.34;65.11
79236;BME280;69062;47.460;18.812;2023-05-19T01:53:51;100830.03;;;21.35;65.47
79236;BME280;69062;47.460;18.812;2023-05-19T01:54:54;100830.03;;;21.35;65.75
79236;BME280;69062;47.460;18.812;2023-05-19T01:55:57;100826.34;;;21.36;65.71
79236;BME280;69062;47.460;18.812;2023-05-19T01:57:22;100826.34;;;21.36;65.48
79236;BME280;69062;47.460;18.812;2023-05-19T01:59:43;100825.50;;;21.36;65.64
79236;BME280;69062;47.460;18.812;2023-05-19T02:02:27;100831.16;;;21.33;65.60
79236;BME280;69062;47.460;18.812;2023-05-19T02:05:00;100834.69;;;21.33;65.18
79236;BME280;69062;47.460;18.812;2023-05-19T02:07:51;100831.28;;;21.31;65.39
79236;BME280;69062;47.460;18.812;2023-05-19T02:09:12;100842.75;;;21.33;65.40
79236;BME280;69062;47.460;18.812;2023-05-19T02:10:21;100833.00;;;21.32;65.11
79236;BME280;69062;47.460;18.812;2023-05-19T02:11:32;100837.38;;;21.33;65.74
79236;BME280;69062;47.460;18.812;2023-05-19T02:12:38;100839.06;;;21.34;65.15
79236;BME280;69062;47.460;18.812;2023-05-19T02:13:43;100825.78;;;21.33;65.41
79236;BME280;69062;47.460;18.812;2023-05-19T02:15:14;100836.38;;;21.34;65.07
79236;BME280;69062;47.460;18.812;2023-05-19T02:16:17;100840.19;;;21.32;65.24
79236;BME280;69062;47.460;18.812;2023-05-19T02:17:21;100830.31;;;21.32;65.35
79236;BME280;69062;47.460;18.812;2023-05-19T02:18:23;100833.00;;;21.32;65.34
79236;BME280;69062;47.460;18.812;2023-05-19T02:19:28;100832.13;;;21.32;65.11
79236;BME280;69062;47.460;18.812;2023-05-19T02:20:30;100833.97;;;21.31;65.11
79236;BME280;69062;47.460;18.812;2023-05-19T02:21:32;100833.84;;;21.33;65.68
79236;BME280;69062;47.460;18.812;2023-05-19T02:22:34;100842.03;;;21.31;65.70
79236;BME280;69062;47.460;18.812;2023-05-19T02:23:35;100840.44;;;21.29;65.58
79236;BME280;69062;47.460;18.812;2023-05-19T02:24:37;100837.66;;;21.30;65.07
79236;BME280;69062;47.460;18.812;2023-05-19T02:25:39;100828.72;;;21.30;65.48
79236;BME280;69062;47.460;18.812;2023-05-19T02:26:41;100833.97;;;21.31;65.62
79236;BME280;69062;47.460;18.812;2023-05-19T02:27:42;100830.53;;;21.29;65.80
79236;BME280;69062;47.460;18.812;2023-05-19T02:28:43;100833.00;;;21.32;64.98
79236;BME280;69062;47.460;18.812;2023-05-19T02:29:45;100828.72;;;21.30;65.83
79236;BME280;69062;47.460;18.812;2023-05-19T02:30:46;100836.03;;;21.28;65.27
79236;BME280;69062;47.460;18.812;2023-05-19T02:31:48;100831.53;;;21.28;65.05
79236;BME280;69062;47.460;18.812;2023-05-19T02:32:49;100836.03;;;21.28;65.66
79236;BME280;69062;47.460;18.812;2023-05-19T02:33:50;100830.69;;;21.28;65.01
79236;BME280;69062;47.460;18.812;2023-05-19T02:34:52;100836.03;;;21.28;65.04
79236;BME280;69062;47.460;18.812;2023-05-19T02:35:53;100836.03;;;21.28;65.00
79236;BME280;69062;47.460;18.812;2023-05-19T02:36:55;100833.47;;;21.26;65.79
79236;BME280;69062;47.460;18.812;2023-05-19T02:37:57;100829.69;;;21.29;65.00
79236;BME280;69062;47.460;18.812;2023-05-19T02:39:00;100829.59;;;21.30;65.48
79236;BME280;69062;47.460;18.812;2023-05-19T02:40:04;100829.69;;;21.29;65.53
79236;BME280;69062;47.460;18.812;2023-05-19T02:41:06;100826.16;;;21.28;64.97
79236;BME280;69062;47.460;18.812;2023-05-19T02:42:07;100830.53;;;21.29;65.05
79236;BME280;69062;47.460;18.812;2023-05-19T02:43:09;100828.09;;;21.26;65.12
79236;BME280;69062;47.460;18.812;2023-05-19T02:44:10;100828.00;;;21.28;64.99
79236;BME280;69062;47.460;18.812;2023-05-19T02:45:12;100828.94;;;21.27;65.22
79236;BME280;69062;47.460;18.812;2023-05-19T02:46:15;100829.78;;;21.27;65.65
79236;BME280;69062;47.460;18.812;2023-05-19T02:47:16;100834.22;;;21.28;65.65
79236;BME280;69062;47.460;18.812;2023-05-19T02:48:18;100827.09;;;21.27;65.40
79236;BME280;69062;47.460;18.812;2023-05-19T02:49:21;100830.53;;;21.29;64.99
79236;BME280;69062;47.460;18.812;2023-05-19T02:50:22;100827.09;;;21.27;65.66
79236;BME280;69062;47.460;18.812;2023-05-19T02:51:24;100830.69;;;21.28;65.06
79236;BME280;69062;47.460;18.812;2023-05-19T02:52:25;100832.47;;;21.27;65.69
79236;BME280;69062;47.460;18.812;2023-05-19T02:53:26;100829.78;;;21.27;65.53
79236;BME280;69062;47.460;18.812;2023-05-19T02:54:32;100826.16;;;21.28;65.35
79236;BME280;69062;47.460;18.812;2023-05-19T02:55:33;100828.00;;;21.28;65.38
79236;BME280;69062;47.460;18.812;2023-05-19T02:56:35;100831.63;;;21.27;64.99
79236;BME280;69062;47.460;18.812;2023-05-19T02:57:36;100827.09;;;21.27;65.56
79236;BME280;69062;47.460;18.812;2023-05-19T02:58:38;100833.47;;;21.26;64.89
79236;BME280;69062;47.460;18.812;2023-05-19T02:59:39;100828.94;;;21.27;64.93
79236;BME280;69062;47.460;18.812;2023-05-19T03:00:41;100835.16;;;21.27;65.24
79236;BME280;69062;47.460;18.812;2023-05-19T03:01:44;100831.63;;;21.27;65.39
79236;BME280;69062;47.460;18.812;2023-05-19T03:02:46;100828.09;;;21.26;65.60
79236;BME280;69062;47.460;18.812;2023-05-19T03:03:47;100839.81;;;21.25;65.69
79236;BME280;69062;47.460;18.812;2023-05-19T03:04:49;100833.47;;;21.26;65.45
79236;BME280;69062;47.460;18.812;2023-05-19T03:05:51;100838.00;;;21.26;65.45
79236;BME280;69062;47.460;18.812;2023-05-19T03:06:53;100839.09;;;21.23;65.19
79236;BME280;69062;47.460;18.812;2023-05-19T03:07:55;100843.50;;;21.24;65.34
79236;BME280;69062;47.460;18.812;2023-05-19T03:08:56;100843.50;;;21.24;65.49
79236;BME280;69062;47.460;18.812;2023-05-19T03:09:58;100846.19;;;21.24;65.62
79236;BME280;69062;47.460;18.812;2023-05-19T03:10:59;100839.81;;;21.25;65.41
79236;BME280;69062;47.460;18.812;2023-05-19T03:12:01;100843.72;;;21.21;65.82
79236;BME280;69062;47.460;18.812;2023-05-19T03:13:04;100841.91;;;21.21;65.62
79236;BME280;69062;47.460;18.812;2023-05-19T03:14:06;100834.69;;;21.22;65.00
79236;BME280;69062;47.460;18.812;2023-05-19T03:15:10;100837.38;;;21.22;65.53
79236;BME280;69062;47.460;18.812;2023-05-19T03:16:13;100839.09;;;21.23;65.55
79236;BME280;69062;47.460;18.812;2023-05-19T03:17:14;100840.81;;;21.24;64.97
79236;BME280;69062;47.460;18.812;2023-05-19T03:18:16;100842.75;;;21.22;65.57
79236;BME280;69062;47.460;18.812;2023-05-19T03:19:17;100831.28;;;21.20;65.08
79236;BME280;69062;47.460;18.812;2023-05-19T03:20:18;100841.03;;;21.21;65.44
79236;BME280;69062;47.460;18.812;2023-05-19T03:21:20;100839.09;;;21.23;65.12
79236;BME280;69062;47.460;18.812;2023-05-19T03:22:21;100838.25;;;21.23;65.54
79236;BME280;69062;47.460;18.812;2023-05-19T03:23:23;100844.47;;;21.23;65.29
79236;BME280;69062;47.460;18.812;2023-05-19T03:24:24;100844.47;;;21.23;65.56
79236;BME280;69062;47.460;18.812;2023-05-19T03:25:25;100840.94;;;21.23;65.04
79236;BME280;69062;47.460;18.812;2023-05-19T03:26:27;100845.34;;;21.24;64.69
79236;BME280;69062;47.460;18.812;2023-05-19T03:27:32;100853.50;;;21.22;65.61
79236;BME280;69062;47.460;18.812;2023-05-19T03:28:34;100850.81;;;21.22;65.54
79236;BME280;69062;47.460;18.812;2023-05-19T03:29:36;100852.63;;;21.21;65.14
79236;BME280;69062;47.460;18.812;2023-05-19T03:30:37;100843.63;;;21.23;65.53
79236;BME280;69062;47.460;18.812;2023-05-19T03:31:45;100851.69;;;21.23;64.70
79236;BME280;69062;47.460;18.812;2023-05-19T03:32:48;100840.19;;;21.20;65.00
79236;BME280;69062;47.460;18.812;2023-05-19T03:33:49;100842.88;;;21.20;64.88
79236;BME280;69062;47.460;18.812;2023-05-19T03:34:51;100850.94;;;21.20;65.14
79236;BME280;69062;47.460;18.812;2023-05-19T03:35:53;100848.25;;;21.20;65.14
79236;BME280;69062;47.460;18.812;2023-05-19T03:36:54;100847.41;;;21.20;65.75
79236;BME280;69062;47.460;18.812;2023-05-19T03:37:57;100844.72;;;21.20;64.94
79236;BME280;69062;47.460;18.812;2023-05-19T03:38:58;100839.34;;;21.20;65.17
79236;BME280;69062;47.460;18.812;2023-05-19T03:40:00;100844.72;;;21.20;65.50
79236;BME280;69062;47.460;18.812;2023-05-19T03:41:02;100843.00;;;21.19;65.19
79236;BME280;69062;47.460;18.812;2023-05-19T03:42:03;100842.16;;;21.18;65.16
79236;BME280;69062;47.460;18.812;2023-05-19T03:43:06;100848.38;;;21.19;65.28
79236;BME280;69062;47.460;18.812;2023-05-19T03:44:13;100845.84;;;21.17;65.70
79236;BME280;69062;47.460;18.812;2023-05-19T03:45:15;100844.84;;;21.18;65.44
79236;BME280;69062;47.460;18.812;2023-05-19T03:46:18;100839.63;;;21.17;65.29
79236;BME280;69062;47.460;18.812;2023-05-19T03:47:39;100842.16;;;21.18;64.99
79236;BME280;69062;47.460;18.812;2023-05-19T03:49:01;100847.53;;;21.18;65.47
79236;BME280;69062;47.460;18.812;2023-05-19T03:50:43;100851.06;;;21.19;65.19
79236;BME280;69062;47.460;18.812;2023-05-19T03:52:00;100848.53;;;21.17;64.96
79236;BME280;69062;47.460;18.812;2023-05-19T03:53:32;100841.31;;;21.18;64.93
79236;BME280;69062;47.460;18.812;2023-05-19T03:54:34;100842.44;;;21.15;65.49
79236;BME280;69062;47.460;18.812;2023-05-19T03:55:36;100854.03;;;21.16;65.19
79236;BME280;69062;47.460;18.812;2023-05-19T03:56:38;100851.22;;;21.17;65.61
79236;BME280;69062;47.460;18.812;2023-05-19T03:57:42;100848.75;;;21.14;64.98
79236;BME280;69062;47.460;18.812;2023-05-19T03:58:44;100850.59;;;21.14;65.39
79236;BME280;69062;47.460;18.812;2023-05-19T03:59:47;100848.66;;;21.16;65.28
79236;BME280;69062;47.460;18.812;2023-05-19T04:00:48;100850.59;;;21.14;65.45
79236;BME280;69062;47.460;18.812;2023-05-19T04:01:50;100855.00;;;21.15;65.62
79236;BME280;69062;47.460;18.812;2023-05-19T04:02:51;100853.19;;;21.15;65.38
79236;BME280;69062;47.460;18.812;2023-05-19T04:03:53;100860.13;;;21.18;65.39
79236;BME280;69062;47.460;18.812;2023-05-19T04:04:54;100857.56;;;21.16;65.58
79236;BME280;69062;47.460;18.812;2023-05-19T04:05:56;100856.59;;;21.17;65.22
79236;BME280;69062;47.460;18.812;2023-05-19T04:06:57;100852.19;;;21.16;65.67
79236;BME280;69062;47.460;18.812;2023-05-19T04:07:58;100855.72;;;21.17;65.63
79236;BME280;69062;47.460;18.812;2023-05-19T04:09:01;100855.72;;;21.17;64.99
79236;BME280;69062;47.460;18.812;2023-05-19T04:10:04;100848.38;;;21.19;64.64
79236;BME280;69062;47.460;18.812;2023-05-19T04:11:05;100857.56;;;21.16;65.50
79236;BME280;69062;47.460;18.812;2023-05-19T04:12:07;100854.75;;;21.18;65.02
79236;BME280;69062;47.460;18.812;2023-05-19T04:13:08;100850.34;;;21.17;64.90
79236;BME280;69062;47.460;18.812;2023-05-19T04:14:11;100858.56;;;21.15;65.64
79236;BME280;69062;47.460;18.812;2023-05-19T04:15:12;100858.56;;;21.15;65.00
79236;BME280;69062;47.460;18.812;2023-05-19T04:16:15;100863.78;;;21.17;65.53
79236;BME280;69062;47.460;18.812;2023-05-19T04:17:16;100860.50;;;21.13;65.75
79236;BME280;69062;47.460;18.812;2023-05-19T04:18:18;100868.44;;;21.15;65.10
79236;BME280;69062;47.460;18.812;2023-05-19T04:19:19;100871.22;;;21.13;65.17
79236;BME280;69062;47.460;18.812;2023-05-19T04:20:20;100871.13;;;21.15;65.25
79236;BME280;69062;47.460;18.812;2023-05-19T04:21:22;100872.94;;;21.14;65.62
79236;BME280;69062;47.460;18.812;2023-05-19T04:22:23;100866.72;;;21.14;65.23
79236;BME280;69062;47.460;18.812;2023-05-19T04:23:25;100867.56;;;21.14;65.06
79236;BME280;69062;47.460;18.812;2023-05-19T04:24:26;100871.22;;;21.13;65.68
79236;BME280;69062;47.460;18.812;2023-05-19T04:25:28;100866.72;;;21.14;65.71
79236;BME280;69062;47.460;18.812;2023-05-19T04:26:29;100869.41;;;21.14;65.54
79236;BME280;69062;47.460;18.812;2023-05-19T04:27:35;100876.50;;;21.15;65.28
79236;BME280;69062;47.460;18.812;2023-05-19T04:28:40;100866.47;;;21.17;65.16
79236;BME280;69062;47.460;18.812;2023-05-19T04:29:45;100864.88;;;21.14;65.54
79236;BME280;69062;47.460;18.812;2023-05-19T04:30:48;100867.56;;;21.14;65.06
79236;BME280;69062;47.460;18.812;2023-05-19T04:31:51;100878.22;;;21.16;65.27
79236;BME280;69062;47.460;18.812;2023-05-19T04:32:52;100872.94;;;21.14;65.26
79236;BME280;69062;47.460;18.812;2023-05-19T04:33:54;100877.34;;;21.15;65.42
79236;BME280;69062;47.460;18.812;2023-05-19T04:34:56;100868.44;;;21.15;65.09
79236;BME280;69062;47.460;18.812;2023-05-19T04:36:01;100872.84;;;21.16;65.49
79236;BME280;69062;47.460;18.812;2023-05-19T04:37:08;100880.03;;;21.15;65.58
79236;BME280;69062;47.460;18.812;2023-05-19T04:38:10;100883.69;;;21.14;64.92
79236;BME280;69062;47.460;18.812;2023-05-19T04:39:12;100885.41;;;21.15;65.05
79236;BME280;69062;47.460;18.812;2023-05-19T04:40:19;100886.38;;;21.14;65.58
79236;BME280;69062;47.460;18.812;2023-05-19T04:41:22;100884.66;;;21.13;65.77
79236;BME280;69062;47.460;18.812;2023-05-19T04:42:24;100888.19;;;21.14;65.71
79236;BME280;69062;47.460;18.812;2023-05-19T04:43:27;100883.69;;;21.14;65.50
79236;BME280;69062;47.460;18.812;2023-05-19T04:44:29;100887.97;;;21.17;65.01
79236;BME280;69062;47.460;18.812;2023-05-19T04:45:31;100886.28;;;21.16;65.42
79236;BME280;69062;47.460;18.812;2023-05-19T04:46:35;100891.50;;;21.17;64.91
79236;BME280;69062;47.460;18.812;2023-05-19T04:47:36;100888.97;;;21.16;65.65
79236;BME280;69062;47.460;18.812;2023-05-19T04:48:38;100886.38;;;21.14;65.17
79236;BME280;69062;47.460;18.812;2023-05-19T04:49:43;100891.75;;;21.14;65.06
79236;BME280;69062;47.460;18.812;2023-05-19T04:50:44;100892.63;;;21.15;65.67
79236;BME280;69062;47.460;18.812;2023-05-19T04:51:45;100894.31;;;21.16;64.95
79236;BME280;69062;47.460;18.812;2023-05-19T04:52:51;100891.66;;;21.16;65.59
79236;BME280;69062;47.460;18.812;2023-05-19T04:53:56;100896.16;;;21.15;65.44
79236;BME280;69062;47.460;18.812;2023-05-19T04:54:57;100896.16;;;21.15;65.58
79236;BME280;69062;47.460;18.812;2023-05-19T04:55:59;100895.06;;;21.18;65.44
79236;BME280;69062;47.460;18.812;2023-05-19T04:57:02;100896.03;;;21.17;65.53
79236;BME280;69062;47.460;18.812;2023-05-19T04:58:05;100886.28;;;21.16;65.71
79236;BME280;69062;47.460;18.812;2023-05-19T04:59:07;100901.53;;;21.15;65.20
79236;BME280;69062;47.460;18.812;2023-05-19T05:00:10;100899.56;;;21.17;65.88
79236;BME280;69062;47.460;18.812;2023-05-19T05:01:26;100902.38;;;21.16;66.16
79236;BME280;69062;47.460;18.812;2023-05-19T05:02:29;100894.19;;;21.17;65.74
79236;BME280;69062;47.460;18.812;2023-05-19T05:03:32;100887.72;;;21.20;65.40
79236;BME280;69062;47.460;18.812;2023-05-19T05:04:35;100891.09;;;21.22;65.64
79236;BME280;69062;47.460;18.812;2023-05-19T05:05:36;100891.09;;;21.22;65.35
79236;BME280;69062;47.460;18.812;2023-05-19T05:06:38;100888.69;;;21.19;65.67
79236;BME280;69062;47.460;18.812;2023-05-19T05:07:41;100893.06;;;21.20;65.73
79236;BME280;69062;47.460;18.812;2023-05-19T05:08:43;100891.25;;;21.20;65.93
79236;BME280;69062;47.460;18.812;2023-05-19T05:09:45;100894.78;;;21.21;65.39
79236;BME280;69062;47.460;18.812;2023-05-19T05:10:47;100897.47;;;21.21;65.43
79236;BME280;69062;47.460;18.812;2023-05-19T05:11:50;100894.06;;;21.19;65.89
79236;BME280;69062;47.460;18.812;2023-05-19T05:12:53;100891.25;;;21.20;65.90
79236;BME280;69062;47.460;18.812;2023-05-19T05:13:55;100893.06;;;21.20;65.46
79236;BME280;69062;47.460;18.812;2023-05-19T05:15:00;100894.78;;;21.21;65.47
79236;BME280;69062;47.460;18.812;2023-05-19T05:16:02;100899.16;;;21.22;66.01
79236;BME280;69062;47.460;18.812;2023-05-19T05:17:07;100897.59;;;21.19;65.55
79236;BME280;69062;47.460;18.812;2023-05-19T05:18:10;100901.00;;;21.21;66.09
79236;BME280;69062;47.460;18.812;2023-05-19T05:19:11;100898.44;;;21.20;65.24
79236;BME280;69062;47.460;18.812;2023-05-19T05:20:13;100900.91;;;21.23;65.19
79236;BME280;69062;47.460;18.812;2023-05-19T05:21:15;100900.16;;;21.21;65.59
79236;BME280;69062;47.460;18.812;2023-05-19T05:22:17;100901.13;;;21.20;66.33
79236;BME280;69062;47.460;18.812;2023-05-19T05:23:19;100903.59;;;21.23;65.99
79236;BME280;69062;47.460;18.812;2023-05-19T05:24:22;100904.69;;;21.20;66.11
79236;BME280;69062;47.460;18.812;2023-05-19T05:25:28;100903.81;;;21.20;65.59
79236;BME280;69062;47.460;18.812;2023-05-19T05:26:32;100900.28;;;21.19;66.39
79236;BME280;69062;47.460;18.812;2023-05-19T05:27:35;100907.22;;;21.22;65.63
79236;BME280;69062;47.460;18.812;2023-05-19T05:28:40;100905.53;;;21.21;65.84
79236;BME280;69062;47.460;18.812;2023-05-19T05:29:41;100905.53;;;21.21;65.86
79236;BME280;69062;47.460;18.812;2023-05-19T05:30:44;100908.97;;;21.23;65.68
79236;BME280;69062;47.460;18.812;2023-05-19T05:31:48;100907.13;;;21.24;65.98
79236;BME280;69062;47.460;18.812;2023-05-19T05:32:50;100916.19;;;21.23;65.59
79236;BME280;69062;47.460;18.812;2023-05-19T05:34:03;100916.03;;;21.24;65.98
79236;BME280;69062;47.460;18.812;2023-05-19T05:35:06;100912.50;;;21.24;65.80
79236;BME280;69062;47.460;18.812;2023-05-19T05:36:08;100905.28;;;21.24;66.04
79236;BME280;69062;47.460;18.812;2023-05-19T05:37:10;100920.44;;;21.25;65.40
79236;BME280;69062;47.460;18.812;2023-05-19T05:38:12;100907.97;;;21.24;65.97
79236;BME280;69062;47.460;18.812;2023-05-19T05:39:14;100910.53;;;21.26;66.03
79236;BME280;69062;47.460;18.812;2023-05-19T05:40:18;100914.34;;;21.23;65.63